sensor_id;sensor_type;location;lat;lon;timestamp;temperature;humidity
5919;DHT22;2985;48.142;16.344;2022-10-16T00:03:08;12.30;99.90
5919;DHT22;2985;48.142;16.344;2022-10-16T00:08:18;12.30;99.90
5919;DHT22;2985;48.142;16.344;2022-10-16T00:13:27;12.30;99.90
5919;DHT22;2985;48.142;16.344;2022-10-16T00:18:36;12.30;99.90
5919;DHT22;2985;48.142;16.344;2022-10-16T00:23:46;12.30;99.90
5919;DHT22;2985;48.142;16.344;2022-10-16T00:28:55;12.30;99.90
5919;DHT22;2985;48.142;16.344;2022-10-16T00:34:05;12.30;99.90
5919;DHT22;2985;48.142;16.344;2022-10-16T00:39:14;12.30;99.90
5919;DHT22;2985;48.142;16.344;2022-10-16T00:50:00;12.20;99.90
5919;DHT22;2985;48.142;16.344;2022-10-16T00:55:12;12.30;99.90
5919;DHT22;2985;48.142;16.344;2022-10-16T01:00:24;12.20;99.90
5919;DHT22;2985;48.142;16.344;2022-10-16T01:05:39;12.20;99.90
5919;DHT22;2985;48.142;16.344;2022-10-16T01:11:06;12.10;99.90
5919;DHT22;2985;48.142;16.344;2022-10-16T01:17:31;12.10;99.90
5919;DHT22;2985;48.142;16.344;2022-10-16T01:22:09;12.10;99.90
5919;DHT22;2985;48.142;16.344;2022-10-16T01:27:28;12.00;99.90
5919;DHT22;2985;48.142;16.344;2022-10-16T01:38:12;12.10;99.90
5919;DHT22;2985;48.142;16.344;2022-10-16T01:43:28;12.10;99.90
5919;DHT22;2985;48.142;16.344;2022-10-16T01:48:40;12.00;99.90
5919;DHT22;2985;48.142;16.344;2022-10-16T01:53:53;12.00;99.90
5919;DHT22;2985;48.142;16.344;2022-10-16T01:59:10;12.00;99.90
5919;DHT22;2985;48.142;16.344;2022-10-16T02:04:24;11.90;99.90
5919;DHT22;2985;48.142;16.344;2022-10-16T02:09:37;11.90;99.90
5919;DHT22;2985;48.142;16.344;2022-10-16T02:14:46;11.90;99.90
5919;DHT22;2985;48.142;16.344;2022-10-16T02:19:56;11.90;99.90
5919;DHT22;2985;48.142;16.344;2022-10-16T02:25:16;11.80;99.90
5919;DHT22;2985;48.142;16.344;2022-10-16T02:30:39;11.80;99.90
5919;DHT22;2985;48.142;16.344;2022-10-16T02:35:51;11.80;99.90
5919;DHT22;2985;48.142;16.344;2022-10-16T02:41:00;11.80;99.90
5919;DHT22;2985;48.142;16.344;2022-10-16T02:46:10;11.70;99.90
5919;DHT22;2985;48.142;16.344;2022-10-16T02:51:19;11.70;99.90
5919;DHT22;2985;48.142;16.344;2022-10-16T02:56:28;11.70;99.90
5919;DHT22;2985;48.142;16.344;2022-10-16T03:01:39;11.60;99.90
5919;DHT22;2985;48.142;16.344;2022-10-16T03:06:49;11.60;99.90
5919;DHT22;2985;48.142;16.344;2022-10-16T03:11:58;11.50;99.90
5919;DHT22;2985;48.142;16.344;2022-10-16T03:17:07;11.50;99.90
5919;DHT22;2985;48.142;16.344;2022-10-16T03:22:17;11.40;99.90
5919;DHT22;2985;48.142;16.344;2022-10-16T03:27:26;11.40;99.90
5919;DHT22;2985;48.142;16.344;2022-10-16T03:32:35;11.30;99.90
5919;DHT22;2985;48.142;16.344;2022-10-16T03:37:44;11.30;99.90
5919;DHT22;2985;48.142;16.344;2022-10-16T03:42:53;11.30;99.90
5919;DHT22;2985;48.142;16.344;2022-10-16T03:48:06;11.30;99.90
5919;DHT22;2985;48.142;16.344;2022-10-16T03:53:16;11.30;99.90
5919;DHT22;2985;48.142;16.344;2022-10-16T03:58:25;11.20;99.90
5919;DHT22;2985;48.142;16.344;2022-10-16T04:03:34;11.20;99.90
5919;DHT22;2985;48.142;16.344;2022-10-16T04:08:44;11.30;99.90
5919;DHT22;2985;48.142;16.344;2022-10-16T04:13:54;11.30;99.90
5919;DHT22;2985;48.142;16.344;2022-10-16T04:19:03;11.30;99.90
5919;DHT22;2985;48.142;16.344;2022-10-16T04:24:12;11.30;99.90
5919;DHT22;2985;48.142;16.344;2022-10-16T04:29:21;11.30;99.90
5919;DHT22;2985;48.142;16.344;2022-10-16T04:34:30;11.20;99.90
5919;DHT22;2985;48.142;16.344;2022-10-16T04:39:40;11.20;99.90
5919;DHT22;2985;48.142;16.344;2022-10-16T04:44:49;11.20;99.90
5919;DHT22;2985;48.142;16.344;2022-10-16T04:49:58;11.20;99.90
5919;DHT22;2985;48.142;16.344;2022-10-16T04:55:11;11.00;99.90
5919;DHT22;2985;48.142;16.344;2022-10-16T05:00:20;11.00;99.90
5919;DHT22;2985;48.142;16.344;2022-10-16T05:05:30;11.00;99.90
5919;DHT22;2985;48.142;16.344;2022-10-16T05:10:41;10.90;99.90
5919;DHT22;2985;48.142;16.344;2022-10-16T05:15:50;10.80;99.90
5919;DHT22;2985;48.142;16.344;2022-10-16T05:20:59;10.80;99.90
5919;DHT22;2985;48.142;16.344;2022-10-16T05:26:08;10.80;99.90
5919;DHT22;2985;48.142;16.344;2022-10-16T05:31:18;10.70;99.90
5919;DHT22;2985;48.142;16.344;2022-10-16T05:36:27;10.80;99.90
5919;DHT22;2985;48.142;16.344;2022-10-16T05:41:36;10.80;99.90
5919;DHT22;2985;48.142;16.344;2022-10-16T05:46:46;10.80;99.90
5919;DHT22;2985;48.142;16.344;2022-10-16T05:51:55;10.90;99.90
5919;DHT22;2985;48.142;16.344;2022-10-16T05:57:05;11.00;99.90
5919;DHT22;2985;48.142;16.344;2022-10-16T06:02:16;11.00;99.90
5919;DHT22;2985;48.142;16.344;2022-10-16T06:07:25;11.10;99.90
5919;DHT22;2985;48.142;16.344;2022-10-16T06:12:34;11.20;99.90
5919;DHT22;2985;48.142;16.344;2022-10-16T06:17:43;11.30;99.90
5919;DHT22;2985;48.142;16.344;2022-10-16T06:22:52;11.30;99.90
5919;DHT22;2985;48.142;16.344;2022-10-16T06:28:01;11.40;99.90
5919;DHT22;2985;48.142;16.344;2022-10-16T06:33:11;11.50;99.90
5919;DHT22;2985;48.142;16.344;2022-10-16T06:38:21;11.50;99.90
5919;DHT22;2985;48.142;16.344;2022-10-16T06:43:30;11.50;99.90
5919;DHT22;2985;48.142;16.344;2022-10-16T06:48:44;11.60;99.90
5919;DHT22;2985;48.142;16.344;2022-10-16T06:53:54;11.60;99.90
5919;DHT22;2985;48.142;16.344;2022-10-16T06:59:05;11.60;99.90
5919;DHT22;2985;48.142;16.344;2022-10-16T07:04:14;11.70;99.90
5919;DHT22;2985;48.142;16.344;2022-10-16T07:09:24;11.70;99.90
5919;DHT22;2985;48.142;16.344;2022-10-16T07:14:33;11.80;99.90
5919;DHT22;2985;48.142;16.344;2022-10-16T07:19:42;11.90;99.90
5919;DHT22;2985;48.142;16.344;2022-10-16T07:24:52;12.00;99.90
5919;DHT22;2985;48.142;16.344;2022-10-16T07:30:01;12.00;99.90
5919;DHT22;2985;48.142;16.344;2022-10-16T07:35:11;12.10;99.90
5919;DHT22;2985;48.142;16.344;2022-10-16T07:40:20;12.20;99.90
5919;DHT22;2985;48.142;16.344;2022-10-16T07:45:30;12.30;99.90
5919;DHT22;2985;48.142;16.344;2022-10-16T07:50:39;12.40;99.90
5919;DHT22;2985;48.142;16.344;2022-10-16T07:55:48;12.50;99.90
5919;DHT22;2985;48.142;16.344;2022-10-16T08:00:58;12.50;99.90
5919;DHT22;2985;48.142;16.344;2022-10-16T08:06:08;12.50;99.90
5919;DHT22;2985;48.142;16.344;2022-10-16T08:11:17;12.50;99.90
5919;DHT22;2985;48.142;16.344;2022-10-16T08:16:26;12.60;99.90
5919;DHT22;2985;48.142;16.344;2022-10-16T08:21:35;12.70;99.90
5919;DHT22;2985;48.142;16.344;2022-10-16T08:26:45;12.70;99.90
5919;DHT22;2985;48.142;16.344;2022-10-16T08:31:54;12.60;99.90
5919;DHT22;2985;48.142;16.344;2022-10-16T08:37:03;12.70;99.90
5919;DHT22;2985;48.142;16.344;2022-10-16T08:48:22;12.80;99.90
5919;DHT22;2985;48.142;16.344;2022-10-16T08:59:10;12.90;99.90
5919;DHT22;2985;48.142;16.344;2022-10-16T09:04:30;13.00;99.90
5919;DHT22;2985;48.142;16.344;2022-10-16T09:15:41;13.00;99.90
5919;DHT22;2985;48.142;16.344;2022-10-16T09:26:15;12.90;99.90
5919;DHT22;2985;48.142;16.344;2022-10-16T09:31:25;13.10;99.90
5919;DHT22;2985;48.142;16.344;2022-10-16T09:36:43;13.10;99.90
5919;DHT22;2985;48.142;16.344;2022-10-16T09:41:54;13.10;99.90
5919;DHT22;2985;48.142;16.344;2022-10-16T09:47:25;13.10;99.90
5919;DHT22;2985;48.142;16.344;2022-10-16T09:52:35;13.10;99.90
5919;DHT22;2985;48.142;16.344;2022-10-16T09:57:52;13.20;99.90
5919;DHT22;2985;48.142;16.344;2022-10-16T10:03:10;13.10;99.90
5919;DHT22;2985;48.142;16.344;2022-10-16T10:08:20;13.30;99.90
5919;DHT22;2985;48.142;16.344;2022-10-16T10:13:29;13.20;99.90
5919;DHT22;2985;48.142;16.344;2022-10-16T10:18:38;13.30;99.90
5919;DHT22;2985;48.142;16.344;2022-10-16T10:23:55;13.30;99.90
5919;DHT22;2985;48.142;16.344;2022-10-16T10:29:13;13.40;99.90
5919;DHT22;2985;48.142;16.344;2022-10-16T10:45:43;13.50;99.90
5919;DHT22;2985;48.142;16.344;2022-10-16T10:50:56;13.70;99.90
5919;DHT22;2985;48.142;16.344;2022-10-16T10:56:57;13.90;99.90
5919;DHT22;2985;48.142;16.344;2022-10-16T11:02:09;14.00;99.90
5919;DHT22;2985;48.142;16.344;2022-10-16T11:07:34;14.20;99.90
5919;DHT22;2985;48.142;16.344;2022-10-16T11:12:50;14.20;99.90
5919;DHT22;2985;48.142;16.344;2022-10-16T11:23:33;14.40;99.90
5919;DHT22;2985;48.142;16.344;2022-10-16T11:28:55;14.80;99.90
5919;DHT22;2985;48.142;16.344;2022-10-16T11:39:28;14.80;99.90
5919;DHT22;2985;48.142;16.344;2022-10-16T11:50:38;14.90;99.90
5919;DHT22;2985;48.142;16.344;2022-10-16T11:55:49;15.10;99.90
5919;DHT22;2985;48.142;16.344;2022-10-16T12:12:37;15.80;99.90
5919;DHT22;2985;48.142;16.344;2022-10-16T12:17:47;16.10;99.90
5919;DHT22;2985;48.142;16.344;2022-10-16T12:23:04;16.30;99.90
5919;DHT22;2985;48.142;16.344;2022-10-16T12:28:22;16.70;99.90
5919;DHT22;2985;48.142;16.344;2022-10-16T12:33:37;16.80;99.90
5919;DHT22;2985;48.142;16.344;2022-10-16T12:44:00;16.80;99.90
5919;DHT22;2985;48.142;16.344;2022-10-16T12:59:42;17.30;99.90
5919;DHT22;2985;48.142;16.344;2022-10-16T13:37:24;18.40;99.90
5919;DHT22;2985;48.142;16.344;2022-10-16T13:42:33;18.70;99.90
5919;DHT22;2985;48.142;16.344;2022-10-16T13:47:43;18.60;99.90
5919;DHT22;2985;48.142;16.344;2022-10-16T13:53:06;18.60;99.90
5919;DHT22;2985;48.142;16.344;2022-10-16T13:58:15;18.80;99.90
5919;DHT22;2985;48.142;16.344;2022-10-16T14:03:26;18.80;99.90
5919;DHT22;2985;48.142;16.344;2022-10-16T14:08:36;18.80;99.90
5919;DHT22;2985;48.142;16.344;2022-10-16T14:13:46;18.90;99.90
5919;DHT22;2985;48.142;16.344;2022-10-16T14:24:12;19.00;99.90
5919;DHT22;2985;48.142;16.344;2022-10-16T14:29:23;19.10;99.90
5919;DHT22;2985;48.142;16.344;2022-10-16T14:34:39;19.30;99.90
5919;DHT22;2985;48.142;16.344;2022-10-16T14:39:50;19.50;99.90
5919;DHT22;2985;48.142;16.344;2022-10-16T14:45:00;19.80;99.90
5919;DHT22;2985;48.142;16.344;2022-10-16T14:50:10;20.00;99.90
5919;DHT22;2985;48.142;16.344;2022-10-16T14:55:20;20.00;99.90
5919;DHT22;2985;48.142;16.344;2022-10-16T15:00:30;20.10;99.90
5919;DHT22;2985;48.142;16.344;2022-10-16T15:05:39;19.90;99.90
5919;DHT22;2985;48.142;16.344;2022-10-16T15:10:48;19.80;99.90
5919;DHT22;2985;48.142;16.344;2022-10-16T15:15:57;19.50;99.90
5919;DHT22;2985;48.142;16.344;2022-10-16T15:21:07;19.30;99.90
5919;DHT22;2985;48.142;16.344;2022-10-16T15:26:17;19.20;99.90
5919;DHT22;2985;48.142;16.344;2022-10-16T15:31:26;19.00;99.90
5919;DHT22;2985;48.142;16.344;2022-10-16T15:36:37;18.80;99.90
5919;DHT22;2985;48.142;16.344;2022-10-16T15:41:47;18.70;99.90
5919;DHT22;2985;48.142;16.344;2022-10-16T15:46:59;18.40;99.90
5919;DHT22;2985;48.142;16.344;2022-10-16T15:52:10;18.30;99.90
5919;DHT22;2985;48.142;16.344;2022-10-16T15:57:19;18.10;99.90
5919;DHT22;2985;48.142;16.344;2022-10-16T16:02:29;18.00;99.90
5919;DHT22;2985;48.142;16.344;2022-10-16T16:07:39;17.80;99.90
5919;DHT22;2985;48.142;16.344;2022-10-16T16:12:50;17.60;99.90
5919;DHT22;2985;48.142;16.344;2022-10-16T16:18:01;17.50;99.90
5919;DHT22;2985;48.142;16.344;2022-10-16T16:23:12;17.40;99.90
5919;DHT22;2985;48.142;16.344;2022-10-16T16:28:22;17.30;99.90
5919;DHT22;2985;48.142;16.344;2022-10-16T16:33:32;17.10;99.90
5919;DHT22;2985;48.142;16.344;2022-10-16T16:38:42;17.00;99.90
5919;DHT22;2985;48.142;16.344;2022-10-16T16:43:53;17.00;99.90
5919;DHT22;2985;48.142;16.344;2022-10-16T16:49:03;16.90;99.90
5919;DHT22;2985;48.142;16.344;2022-10-16T16:54:13;16.80;99.90
5919;DHT22;2985;48.142;16.344;2022-10-16T16:59:22;16.70;99.90
5919;DHT22;2985;48.142;16.344;2022-10-16T17:04:32;16.60;99.90
5919;DHT22;2985;48.142;16.344;2022-10-16T17:09:42;16.60;99.90
5919;DHT22;2985;48.142;16.344;2022-10-16T17:14:52;16.50;99.90
5919;DHT22;2985;48.142;16.344;2022-10-16T17:20:02;16.50;99.90
5919;DHT22;2985;48.142;16.344;2022-10-16T17:25:12;16.40;99.90
5919;DHT22;2985;48.142;16.344;2022-10-16T17:30:24;16.30;99.90
5919;DHT22;2985;48.142;16.344;2022-10-16T17:35:39;16.20;99.90
5919;DHT22;2985;48.142;16.344;2022-10-16T17:40:49;16.20;99.90
5919;DHT22;2985;48.142;16.344;2022-10-16T17:46:01;16.10;99.90
5919;DHT22;2985;48.142;16.344;2022-10-16T17:51:14;16.00;99.90
5919;DHT22;2985;48.142;16.344;2022-10-16T17:56:25;15.90;99.90
5919;DHT22;2985;48.142;16.344;2022-10-16T18:01:39;15.90;99.90
5919;DHT22;2985;48.142;16.344;2022-10-16T18:06:49;15.80;99.90
5919;DHT22;2985;48.142;16.344;2022-10-16T18:11:59;15.90;99.90
5919;DHT22;2985;48.142;16.344;2022-10-16T18:17:10;15.80;99.90
5919;DHT22;2985;48.142;16.344;2022-10-16T18:22:20;15.70;99.90
5919;DHT22;2985;48.142;16.344;2022-10-16T18:27:31;15.70;99.90
5919;DHT22;2985;48.142;16.344;2022-10-16T18:32:41;15.70;99.90
5919;DHT22;2985;48.142;16.344;2022-10-16T18:37:51;15.70;99.90
5919;DHT22;2985;48.142;16.344;2022-10-16T18:43:03;15.60;99.90
5919;DHT22;2985;48.142;16.344;2022-10-16T18:48:13;15.50;99.90
5919;DHT22;2985;48.142;16.344;2022-10-16T18:53:23;15.40;99.90
5919;DHT22;2985;48.142;16.344;2022-10-16T18:58:37;15.30;99.90
5919;DHT22;2985;48.142;16.344;2022-10-16T19:03:48;15.20;99.90
5919;DHT22;2985;48.142;16.344;2022-10-16T19:08:58;15.10;99.90
5919;DHT22;2985;48.142;16.344;2022-10-16T19:14:12;15.00;99.90
5919;DHT22;2985;48.142;16.344;2022-10-16T19:19:23;15.00;99.90
5919;DHT22;2985;48.142;16.344;2022-10-16T19:24:34;14.90;99.90
5919;DHT22;2985;48.142;16.344;2022-10-16T19:29:44;14.90;99.90
5919;DHT22;2985;48.142;16.344;2022-10-16T19:34:54;14.80;99.90
5919;DHT22;2985;48.142;16.344;2022-10-16T19:40:08;14.80;99.90
5919;DHT22;2985;48.142;16.344;2022-10-16T19:45:20;14.60;99.90
5919;DHT22;2985;48.142;16.344;2022-10-16T19:50:29;14.60;99.90
5919;DHT22;2985;48.142;16.344;2022-10-16T19:55:38;14.50;99.90
5919;DHT22;2985;48.142;16.344;2022-10-16T20:00:48;14.40;99.90
5919;DHT22;2985;48.142;16.344;2022-10-16T20:05:58;14.30;99.90
5919;DHT22;2985;48.142;16.344;2022-10-16T20:11:20;14.30;99.90
5919;DHT22;2985;48.142;16.344;2022-10-16T20:16:30;14.20;99.90
5919;DHT22;2985;48.142;16.344;2022-10-16T20:21:40;14.10;99.90
5919;DHT22;2985;48.142;16.344;2022-10-16T20:26:49;14.00;99.90
5919;DHT22;2985;48.142;16.344;2022-10-16T20:31:59;14.00;99.90
5919;DHT22;2985;48.142;16.344;2022-10-16T20:37:08;14.00;99.90
5919;DHT22;2985;48.142;16.344;2022-10-16T20:42:17;14.00;99.90
5919;DHT22;2985;48.142;16.344;2022-10-16T20:47:26;13.90;99.90
5919;DHT22;2985;48.142;16.344;2022-10-16T20:52:35;13.90;99.90
5919;DHT22;2985;48.142;16.344;2022-10-16T20:57:45;13.90;99.90
5919;DHT22;2985;48.142;16.344;2022-10-16T21:02:54;13.80;99.90
5919;DHT22;2985;48.142;16.344;2022-10-16T21:08:04;13.70;99.90
5919;DHT22;2985;48.142;16.344;2022-10-16T21:13:13;13.60;99.90
5919;DHT22;2985;48.142;16.344;2022-10-16T21:18:23;13.50;99.90
5919;DHT22;2985;48.142;16.344;2022-10-16T21:23:32;13.50;99.90
5919;DHT22;2985;48.142;16.344;2022-10-16T21:28:41;13.50;99.90
5919;DHT22;2985;48.142;16.344;2022-10-16T21:33:51;13.40;99.90
5919;DHT22;2985;48.142;16.344;2022-10-16T21:39:06;13.30;99.90
5919;DHT22;2985;48.142;16.344;2022-10-16T21:44:16;13.20;99.90
5919;DHT22;2985;48.142;16.344;2022-10-16T21:49:25;13.20;99.90
5919;DHT22;2985;48.142;16.344;2022-10-16T21:54:35;13.10;99.90
5919;DHT22;2985;48.142;16.344;2022-10-16T21:59:44;13.20;99.90
5919;DHT22;2985;48.142;16.344;2022-10-16T22:04:53;13.10;99.90
5919;DHT22;2985;48.142;16.344;2022-10-16T22:10:03;13.00;99.90
5919;DHT22;2985;48.142;16.344;2022-10-16T22:15:13;13.00;99.90
5919;DHT22;2985;48.142;16.344;2022-10-16T22:20:22;12.90;99.90
5919;DHT22;2985;48.142;16.344;2022-10-16T22:25:32;12.90;99.90
5919;DHT22;2985;48.142;16.344;2022-10-16T22:30:41;12.80;99.90
5919;DHT22;2985;48.142;16.344;2022-10-16T22:35:51;12.80;99.90
5919;DHT22;2985;48.142;16.344;2022-10-16T22:41:02;12.80;99.90
5919;DHT22;2985;48.142;16.344;2022-10-16T22:46:17;12.80;99.90
5919;DHT22;2985;48.142;16.344;2022-10-16T22:51:26;12.80;99.90
5919;DHT22;2985;48.142;16.344;2022-10-16T22:56:36;12.90;99.90
5919;DHT22;2985;48.142;16.344;2022-10-16T23:01:45;12.90;99.90
5919;DHT22;2985;48.142;16.344;2022-10-16T23:06:55;12.80;99.90
5919;DHT22;2985;48.142;16.344;2022-10-16T23:12:04;12.90;99.90
5919;DHT22;2985;48.142;16.344;2022-10-16T23:17:13;12.90;99.90
5919;DHT22;2985;48.142;16.344;2022-10-16T23:22:22;12.80;99.90
5919;DHT22;2985;48.142;16.344;2022-10-16T23:27:31;12.80;99.90
5919;DHT22;2985;48.142;16.344;2022-10-16T23:32:41;12.80;99.90
5919;DHT22;2985;48.142;16.344;2022-10-16T23:37:50;12.70;99.90
5919;DHT22;2985;48.142;16.344;2022-10-16T23:42:59;12.80;99.90
5919;DHT22;2985;48.142;16.344;2022-10-16T23:48:08;12.70;99.90
5919;DHT22;2985;48.142;16.344;2022-10-16T23:53:18;12.60;99.90
5919;DHT22;2985;48.142;16.344;2022-10-16T23:58:27;12.60;99.90
